Palmyra, Michigan
Current Conditions -  °F | °C
As of 12:53 PM on Tuesday 21 Oct 2014 (Local Time) from KADG Reporting Station
Overcast Overcast  
Wind Chill: 43°   Ceiling: 2600
Heat Index: 49°   Visibility: 10mi
Dew Point: 39°   Wind: 15mph
Humidity: 69%   Direction: 40°NE
Pressure: 30.07"   Gusts: 23mph
Location:  41.86°N, 83.94°W
Report Text: KADG 211653Z AUTO 04013G20KT 10SM BKN026 OVC033 09/04 A3007 RMK AO2 SLP186 T00940039
Loading
Personal Weather Stations






























Interactive Weather Map
Tropical Storm Tracking
New forecast layout! Learn more

10-Day Weather Forecast

Advertisements
Track Severe Weather on mobile